Lancaster, TX

10:59 AM CDT on September 25, 2016 (GMT -0500)
Lancaster | | Change Station

Elev 502 ft 32.58 °N, 96.72 °W | Updated 24 minutes ago

Overcast
Overcast
80 °F
Feels Like 80 °F
N
5
Wind Variable Wind from SSE

Today
High -- | Low -- °F
--% Chance of Precip.
Yesterday
High -- | Low -- °F
Precip. -- in
Pressure 30.04 in
Visibility 10.0 miles
Clouds Mostly Cloudy 1100 ft
Overcast 5000 ft
Dew Point 74 °F
Humidity 81%
Rainfall 0.12 in
Snow Depth Not available.
7:17 AM 7:18 PM
Waning Crescent, 27% visible
METAR KLNC 251535Z AUTO 15004KT 10SM BKN011 OVC050 27/23 A3004 RMK AO2 LTG DSNT SW T02650231
Pressure 30.04 in
Visibility 10.0 miles
Clouds Mostly Cloudy 1100 ft
Overcast 5000 ft
Dew Point 74 °F
Humidity 81%
Rainfall 0.12 in
Snow Depth Not available.
7:17 AM 7:18 PM
Waning Crescent, 27% visible
METAR KLNC 251535Z AUTO 15004KT 10SM BKN011 OVC050 27/23 A3004 RMK AO2 LTG DSNT SW T02650231

10-Day Weather Forecast

Almanac

Astronomy

Sep. 25, 2016 Rise Set
Actual Time
Civil Twilight
Nautical Twilight
Astronomical Twilight
Moon
Length of Visible Light
Length of Day
Tomorrow will be .
, % of the Moon is Illuminated

Today's Extremes

State Highs State Lows

Community

WunderPhotos

Upload Photos

1,941,644 photos uploaded!

WunderBlog® & News

Nearby

Air Quality

  Air Quality AQ Index Pollutant
Not available.

Snow Depth

Station Depth Elevation

Earthquake Activity

City Distance Mag. Time & Date
Minimum magnitude displayed is 2.5.

Coastal Water Temperatures

Place Temperature

Stations

Nearby Weather Stations

Station Location Temp. Windchill Dew Point Humidity Wind Precip. Elev Updated Type
                   

Watches & Warnings

There are currently no watches in effect.